Wolke Sonne

Wetter Roßtal

Gehe zu: Ammerndorf

Tageswerte vom Freitag, 16.04.2021

Optionen

Tag:
Erweitert:

Alle Werte vom Freitag, 16.04.2021

Einen Moment bitte, die Daten werden aufbereitet...

UhrzeitTemperaturFeuchteLuftdruckNiederschlagEvapotranspirationNiederschlag?WindWindböenRegenrateWindrichtungHelligkeitSolarstrahlungUV-IndexSonne?Feinstaub 10µmUhrzeit
Diagramm IconDiagramm IconDiagramm IconDiagramm IconDiagramm IconDiagramm IconDiagramm IconDiagramm IconDiagramm IconDiagramm IconDiagramm IconDiagramm IconDiagramm IconDiagramm IconDiagramm Icon
00:001,7 °C 74 % 1028,3 hPa 0,0 mm 0,0 mm nein 1,6 km/h 4,8 km/h 0,0 mm/h NNW 0,000 klux 0,0 W/qm 0,0 nein - 00:00
00:051,1 °C 74 % 1028,4 hPa 0,0 mm 0,0 mm nein 3,2 km/h 6,4 km/h 0,0 mm/h NNW 0,000 klux 0,0 W/qm 0,0 nein - 00:05
00:101,1 °C 75 % 1028,4 hPa 0,0 mm 0,0 mm nein 3,2 km/h 6,4 km/h 0,0 mm/h NNW 0,000 klux 0,0 W/qm 0,0 nein - 00:10
00:151,1 °C 76 % 1028,4 hPa 0,0 mm 0,0 mm nein 3,2 km/h 6,4 km/h 0,0 mm/h N 0,000 klux 0,0 W/qm 0,0 nein - 00:15
00:201,1 °C 76 % 1028,3 hPa 0,0 mm 0,0 mm nein 1,6 km/h 6,4 km/h 0,0 mm/h NNW 0,000 klux 0,0 W/qm 0,0 nein - 00:20
00:251,1 °C 77 % 1028,3 hPa 0,0 mm 0,0 mm nein 1,6 km/h 4,8 km/h 0,0 mm/h N 0,000 klux 0,0 W/qm 0,0 nein - 00:25
00:301,1 °C 77 % 1028,2 hPa 0,0 mm 0,0 mm nein 1,6 km/h 4,8 km/h 0,0 mm/h N 0,000 klux 0,0 W/qm 0,0 nein - 00:30
00:351,1 °C 77 % 1028,2 hPa 0,0 mm 0,0 mm nein 1,6 km/h 4,8 km/h 0,0 mm/h N 0,000 klux 0,0 W/qm 0,0 nein - 00:35
00:401,1 °C 78 % 1028,2 hPa 0,0 mm 0,0 mm nein 1,6 km/h 3,2 km/h 0,0 mm/h N 0,000 klux 0,0 W/qm 0,0 nein - 00:40
00:451,1 °C 77 % 1028,2 hPa 0,0 mm 0,0 mm nein 0,0 km/h 1,6 km/h 0,0 mm/h N 0,000 klux 0,0 W/qm 0,0 nein - 00:45
00:501,1 °C 77 % 1028,2 hPa 0,0 mm 0,0 mm nein 1,6 km/h 3,2 km/h 0,0 mm/h N 0,000 klux 0,0 W/qm 0,0 nein - 00:50
00:551,1 °C 78 % 1028,2 hPa 0,0 mm 0,0 mm nein 1,6 km/h 3,2 km/h 0,0 mm/h N 0,000 klux 0,0 W/qm 0,0 nein - 00:55
01:001,1 °C 78 % 1028,2 hPa 0,0 mm 0,0 mm nein 1,6 km/h 4,8 km/h 0,0 mm/h N 0,000 klux 0,0 W/qm 0,0 nein - 01:00
01:051,1 °C 78 % 1028,2 hPa 0,0 mm 0,0 mm nein 1,6 km/h 6,4 km/h 0,0 mm/h N 0,000 klux 0,0 W/qm 0,0 nein - 01:05
01:101,1 °C 78 % 1028,1 hPa 0,0 mm 0,0 mm nein 1,6 km/h 4,8 km/h 0,0 mm/h N 0,000 klux 0,0 W/qm 0,0 nein - 01:10
01:151,1 °C 78 % 1028,1 hPa 0,0 mm 0,0 mm nein 0,0 km/h 3,2 km/h 0,0 mm/h N 0,000 klux 0,0 W/qm 0,0 nein - 01:15
01:201,1 °C 78 % 1028,0 hPa 0,0 mm 0,0 mm nein 0,0 km/h 1,6 km/h 0,0 mm/h N 0,000 klux 0,0 W/qm 0,0 nein - 01:20
01:251,1 °C 78 % 1028,1 hPa 0,0 mm 0,0 mm nein 0,0 km/h 1,6 km/h 0,0 mm/h N 0,000 klux 0,0 W/qm 0,0 nein - 01:25
01:301,1 °C 78 % 1028,0 hPa 0,0 mm 0,0 mm nein 0,0 km/h 1,6 km/h 0,0 mm/h N 0,000 klux 0,0 W/qm 0,0 nein - 01:30
01:350,6 °C 78 % 1028,1 hPa 0,0 mm 0,0 mm nein 1,6 km/h 3,2 km/h 0,0 mm/h N 0,000 klux 0,0 W/qm 0,0 nein - 01:35
01:400,6 °C 78 % 1028,0 hPa 0,0 mm 0,0 mm nein 1,6 km/h 3,2 km/h 0,0 mm/h N 0,000 klux 0,0 W/qm 0,0 nein - 01:40
01:450,6 °C 78 % 1028,0 hPa 0,0 mm 0,0 mm nein 0,0 km/h 3,2 km/h 0,0 mm/h N 0,000 klux 0,0 W/qm 0,0 nein - 01:45
01:500,6 °C 79 % 1027,9 hPa 0,0 mm 0,0 mm nein 0,0 km/h 1,6 km/h 0,0 mm/h N 0,000 klux 0,0 W/qm 0,0 nein - 01:50
01:550,6 °C 79 % 1027,9 hPa 0,0 mm 0,0 mm nein 0,0 km/h 1,6 km/h 0,0 mm/h N 0,000 klux 0,0 W/qm 0,0 nein - 01:55
UhrzeitTemperaturFeuchteLuftdruckNiederschlagEvapotranspirationNiederschlag?WindWindböenRegenrateWindrichtungHelligkeitSolarstrahlungUV-IndexSonne?Feinstaub 10µmUhrzeit
02:000,6 °C 79 % 1027,8 hPa 0,0 mm 0,0 mm nein 0,0 km/h 1,6 km/h 0,0 mm/h N 0,000 klux 0,0 W/qm 0,0 nein - 02:00
02:050,6 °C 80 % 1027,7 hPa 0,0 mm 0,0 mm nein 0,0 km/h 1,6 km/h 0,0 mm/h N 0,000 klux 0,0 W/qm 0,0 nein - 02:05
02:100,6 °C 80 % 1027,7 hPa 0,0 mm 0,0 mm nein 1,6 km/h 3,2 km/h 0,0 mm/h N 0,000 klux 0,0 W/qm 0,0 nein - 02:10
02:150,6 °C 81 % 1027,7 hPa 0,0 mm 0,0 mm nein 1,6 km/h 4,8 km/h 0,0 mm/h N 0,000 klux 0,0 W/qm 0,0 nein - 02:15
02:200,6 °C 81 % 1027,7 hPa 0,0 mm 0,0 mm nein 1,6 km/h 4,8 km/h 0,0 mm/h N 0,000 klux 0,0 W/qm 0,0 nein - 02:20
02:250,6 °C 82 % 1027,7 hPa 0,0 mm 0,0 mm nein 1,6 km/h 4,8 km/h 0,0 mm/h N 0,000 klux 0,0 W/qm 0,0 nein - 02:25
02:300,6 °C 82 % 1027,7 hPa 0,0 mm 0,0 mm nein 1,6 km/h 3,2 km/h 0,0 mm/h N 0,000 klux 0,0 W/qm 0,0 nein - 02:30
02:350,6 °C 82 % 1027,6 hPa 0,0 mm 0,0 mm nein 1,6 km/h 3,2 km/h 0,0 mm/h N 0,000 klux 0,0 W/qm 0,0 nein - 02:35
02:400,6 °C 82 % 1027,6 hPa 0,0 mm 0,0 mm nein 3,2 km/h 6,4 km/h 0,0 mm/h N 0,000 klux 0,0 W/qm 0,0 nein - 02:40
02:450,6 °C 82 % 1027,5 hPa 0,0 mm 0,0 mm nein 3,2 km/h 4,8 km/h 0,0 mm/h NNW 0,000 klux 0,0 W/qm 0,0 nein - 02:45
02:500,6 °C 82 % 1027,4 hPa 0,0 mm 0,0 mm nein 3,2 km/h 6,4 km/h 0,0 mm/h NNW 0,000 klux 0,0 W/qm 0,0 nein - 02:50
02:550,6 °C 82 % 1027,5 hPa 0,0 mm 0,0 mm nein 1,6 km/h 4,8 km/h 0,0 mm/h NNW 0,000 klux 0,0 W/qm 0,0 nein - 02:55
03:001,1 °C 82 % 1027,3 hPa 0,0 mm 0,0 mm nein 3,2 km/h 6,4 km/h 0,0 mm/h NNW 0,000 klux 0,0 W/qm 0,0 nein - 03:00
03:051,1 °C 83 % 1027,2 hPa 0,0 mm 0,0 mm nein 3,2 km/h 6,4 km/h 0,0 mm/h NNW 0,000 klux 0,0 W/qm 0,0 nein - 03:05
03:100,6 °C 83 % 1027,3 hPa 0,0 mm 0,0 mm nein 1,6 km/h 4,8 km/h 0,0 mm/h NNW 0,000 klux 0,0 W/qm 0,0 nein - 03:10
03:150,6 °C 83 % 1027,2 hPa 0,0 mm 0,0 mm nein 3,2 km/h 6,4 km/h 0,0 mm/h NNW 0,000 klux 0,0 W/qm 0,0 nein - 03:15
03:200,6 °C 83 % 1027,2 hPa 0,0 mm 0,0 mm nein 1,6 km/h 4,8 km/h 0,0 mm/h NNW 0,000 klux 0,0 W/qm 0,0 nein - 03:20
03:250,6 °C 83 % 1027,3 hPa 0,0 mm 0,0 mm nein 3,2 km/h 4,8 km/h 0,0 mm/h NW 0,000 klux 0,0 W/qm 0,0 nein - 03:25
03:300,6 °C 84 % 1027,3 hPa 0,0 mm 0,0 mm nein 4,8 km/h 9,7 km/h 0,0 mm/h NNW 0,000 klux 0,0 W/qm 0,0 nein - 03:30
03:351,1 °C 84 % 1027,1 hPa 0,0 mm 0,0 mm nein 1,6 km/h 4,8 km/h 0,0 mm/h NNW 0,000 klux 0,0 W/qm 0,0 nein - 03:35
03:401,1 °C 85 % 1027,0 hPa 0,0 mm 0,0 mm nein 3,2 km/h 6,4 km/h 0,0 mm/h NNW 0,000 klux 0,0 W/qm 0,0 nein - 03:40
03:451,1 °C 85 % 1026,9 hPa 0,0 mm 0,0 mm nein 1,6 km/h 3,2 km/h 0,0 mm/h NNW 0,000 klux 0,0 W/qm 0,0 nein - 03:45
03:501,1 °C 85 % 1026,9 hPa 0,0 mm 0,0 mm nein 3,2 km/h 6,4 km/h 0,0 mm/h NNW 0,000 klux 0,0 W/qm 0,0 nein - 03:50
03:551,1 °C 85 % 1026,9 hPa 0,0 mm 0,0 mm nein 3,2 km/h 6,4 km/h 0,0 mm/h NW 0,000 klux 0,0 W/qm 0,0 nein - 03:55
UhrzeitTemperaturFeuchteLuftdruckNiederschlagEvapotranspirationNiederschlag?WindWindböenRegenrateWindrichtungHelligkeitSolarstrahlungUV-IndexSonne?Feinstaub 10µmUhrzeit
04:001,1 °C 85 % 1026,9 hPa 0,0 mm 0,0 mm nein 3,2 km/h 6,4 km/h 0,0 mm/h NW 0,000 klux 0,0 W/qm 0,0 nein - 04:00
04:051,1 °C 85 % 1026,8 hPa 0,0 mm 0,0 mm nein 3,2 km/h 6,4 km/h 0,0 mm/h NW 0,000 klux 0,0 W/qm 0,0 nein - 04:05
04:101,1 °C 85 % 1026,8 hPa 0,0 mm 0,0 mm nein 3,2 km/h 6,4 km/h 0,0 mm/h NW 0,000 klux 0,0 W/qm 0,0 nein - 04:10
04:151,1 °C 85 % 1026,6 hPa 0,0 mm 0,0 mm nein 3,2 km/h 8,0 km/h 0,0 mm/h NW 0,000 klux 0,0 W/qm 0,0 nein - 04:15
04:201,1 °C 86 % 1026,6 hPa 0,0 mm 0,0 mm nein 3,2 km/h 6,4 km/h 0,0 mm/h NW 0,000 klux 0,0 W/qm 0,0 nein - 04:20
04:251,1 °C 86 % 1026,6 hPa 0,0 mm 0,0 mm nein 4,8 km/h 9,7 km/h 0,0 mm/h NW 0,000 klux 0,0 W/qm 0,0 nein - 04:25
04:301,1 °C 86 % 1026,5 hPa 0,0 mm 0,0 mm nein 3,2 km/h 9,7 km/h 0,0 mm/h NNW 0,000 klux 0,0 W/qm 0,0 nein - 04:30
04:351,1 °C 86 % 1026,5 hPa 0,0 mm 0,0 mm nein 3,2 km/h 6,4 km/h 0,0 mm/h NW 0,000 klux 0,0 W/qm 0,0 nein - 04:35
04:401,1 °C 86 % 1026,4 hPa 0,0 mm 0,0 mm nein 4,8 km/h 11,3 km/h 0,0 mm/h NW 0,000 klux 0,0 W/qm 0,0 nein - 04:40
04:451,1 °C 86 % 1026,4 hPa 0,0 mm 0,0 mm nein 4,8 km/h 9,7 km/h 0,0 mm/h NW 0,000 klux 0,0 W/qm 0,0 nein - 04:45
04:500,6 °C 87 % 1026,4 hPa 0,0 mm 0,0 mm nein 3,2 km/h 9,7 km/h 0,0 mm/h NNW 0,000 klux 0,0 W/qm 0,0 nein - 04:50
04:550,6 °C 87 % 1026,4 hPa 0,0 mm 0,0 mm nein 3,2 km/h 6,4 km/h 0,0 mm/h NNW 0,000 klux 0,0 W/qm 0,0 nein - 04:55
05:000,6 °C 87 % 1026,4 hPa 0,0 mm 0,0 mm nein 4,8 km/h 8,0 km/h 0,0 mm/h NW 0,000 klux 0,0 W/qm 0,0 nein - 05:00
05:050,6 °C 87 % 1026,3 hPa 0,0 mm 0,0 mm nein 3,2 km/h 8,0 km/h 0,0 mm/h NW 0,000 klux 0,0 W/qm 0,0 nein - 05:05
05:100,6 °C 87 % 1026,3 hPa 0,0 mm 0,0 mm nein 3,2 km/h 6,4 km/h 0,0 mm/h NW 0,000 klux 0,0 W/qm 0,0 nein - 05:10
05:150,6 °C 87 % 1026,3 hPa 0,0 mm 0,0 mm nein 4,8 km/h 8,0 km/h 0,0 mm/h NW 0,000 klux 0,0 W/qm 0,0 nein - 05:15
05:200,6 °C 87 % 1026,2 hPa 0,0 mm 0,0 mm nein 4,8 km/h 9,7 km/h 0,0 mm/h NW 0,000 klux 0,0 W/qm 0,0 nein - 05:20
05:250,6 °C 87 % 1026,2 hPa 0,0 mm 0,0 mm nein 4,8 km/h 11,3 km/h 0,0 mm/h NW 0,000 klux 0,0 W/qm 0,0 nein - 05:25
05:300,6 °C 87 % 1026,2 hPa 0,0 mm 0,0 mm nein 3,2 km/h 9,7 km/h 0,0 mm/h NW 0,000 klux 0,0 W/qm 0,0 nein - 05:30
05:350,6 °C 87 % 1026,1 hPa 0,0 mm 0,0 mm nein 3,2 km/h 6,4 km/h 0,0 mm/h NW 0,000 klux 0,0 W/qm 0,0 nein - 05:35
05:400,6 °C 88 % 1026,2 hPa 0,0 mm 0,0 mm nein 3,2 km/h 8,0 km/h 0,0 mm/h NW 0,000 klux 0,0 W/qm 0,0 nein - 05:40
05:450,6 °C 88 % 1026,1 hPa 0,0 mm 0,0 mm nein 4,8 km/h 8,0 km/h 0,0 mm/h NW 0,000 klux 0,0 W/qm 0,0 nein - 05:45
05:500,6 °C 88 % 1026,1 hPa 0,0 mm 0,0 mm nein 3,2 km/h 6,4 km/h 0,0 mm/h NW 0,000 klux 0,0 W/qm 0,0 nein - 05:50
05:550,6 °C 88 % 1026,1 hPa 0,0 mm 0,0 mm nein 3,2 km/h 8,0 km/h 0,0 mm/h NW 0,000 klux 0,0 W/qm 0,0 nein - 05:55
UhrzeitTemperaturFeuchteLuftdruckNiederschlagEvapotranspirationNiederschlag?WindWindböenRegenrateWindrichtungHelligkeitSolarstrahlungUV-IndexSonne?Feinstaub 10µmUhrzeit
06:000,6 °C 88 % 1026,1 hPa 0,0 mm 0,0 mm nein 4,8 km/h 11,3 km/h 0,0 mm/h NW 0,000 klux 0,0 W/qm 0,0 nein - 06:00
06:050,6 °C 88 % 1026,1 hPa 0,0 mm 0,0 mm nein 4,8 km/h 8,0 km/h 0,0 mm/h NW 0,000 klux 0,0 W/qm 0,0 nein - 06:05
06:100,6 °C 88 % 1026,1 hPa 0,0 mm 0,0 mm nein 3,2 km/h 8,0 km/h 0,0 mm/h NW 0,000 klux 0,0 W/qm 0,0 nein - 06:10
06:150,6 °C 88 % 1026,0 hPa 0,0 mm 0,0 mm nein 3,2 km/h 8,0 km/h 0,0 mm/h NW 0,000 klux 0,0 W/qm 0,0 nein - 06:15
06:200,6 °C 88 % 1026,1 hPa 0,0 mm 0,0 mm nein 3,2 km/h 6,4 km/h 0,0 mm/h NW 0,000 klux 0,0 W/qm 0,0 nein - 06:20
06:250,6 °C 88 % 1026,0 hPa 0,0 mm 0,0 mm nein 3,2 km/h 6,4 km/h 0,0 mm/h NW 0,000 klux 0,0 W/qm 0,0 nein - 06:25
06:300,6 °C 88 % 1026,1 hPa 0,0 mm 0,0 mm nein 3,2 km/h 6,4 km/h 0,0 mm/h WNW 0,000 klux 0,0 W/qm 0,0 nein - 06:30
06:350,6 °C 88 % 1026,1 hPa 0,0 mm 0,0 mm nein 4,8 km/h 8,0 km/h 0,0 mm/h WNW 0,000 klux 0,0 W/qm 0,0 nein - 06:35
06:400,6 °C 88 % 1026,0 hPa 0,0 mm 0,0 mm nein 3,2 km/h 6,4 km/h 0,0 mm/h NW 0,000 klux 0,0 W/qm 0,0 nein - 06:40
06:450,6 °C 88 % 1026,1 hPa 0,0 mm 0,0 mm nein 3,2 km/h 8,0 km/h 0,0 mm/h NW 0,000 klux 6,0 W/qm 0,0 nein - 06:45
06:500,6 °C 88 % 1026,1 hPa 0,0 mm 0,0 mm nein 4,8 km/h 9,7 km/h 0,0 mm/h NW 0,000 klux 10,0 W/qm 0,0 nein - 06:50
06:550,6 °C 88 % 1026,1 hPa 0,0 mm 0,0 mm nein 3,2 km/h 6,4 km/h 0,0 mm/h NNW 0,000 klux 14,0 W/qm 0,0 nein - 06:55
07:000,6 °C 88 % 1026,0 hPa 0,0 mm 0,0 mm nein 4,8 km/h 9,7 km/h 0,0 mm/h NW 0,000 klux 17,0 W/qm 0,0 nein - 07:00
07:050,6 °C 88 % 1026,0 hPa 0,0 mm 0,0 mm nein 4,8 km/h 11,3 km/h 0,0 mm/h NNW 0,000 klux 21,0 W/qm 0,0 nein - 07:05
07:100,6 °C 89 % 1026,1 hPa 0,0 mm 0,0 mm nein 4,8 km/h 9,7 km/h 0,0 mm/h NW 0,000 klux 27,0 W/qm 0,0 nein - 07:10
07:150,6 °C 89 % 1026,1 hPa 0,0 mm 0,0 mm nein 3,2 km/h 9,7 km/h 0,0 mm/h NNW 0,000 klux 35,0 W/qm 0,0 nein - 07:15
07:201,1 °C 89 % 1026,0 hPa 0,0 mm 0,0 mm nein 4,8 km/h 9,7 km/h 0,0 mm/h NW 0,000 klux 37,0 W/qm 0,0 nein - 07:20
07:251,1 °C 89 % 1026,0 hPa 0,0 mm 0,0 mm nein 4,8 km/h 9,7 km/h 0,0 mm/h NW 0,000 klux 35,0 W/qm 0,0 nein - 07:25
07:301,1 °C 89 % 1026,0 hPa 0,0 mm 0,0 mm nein 3,2 km/h 6,4 km/h 0,0 mm/h NNW 0,000 klux 32,0 W/qm 0,0 nein - 07:30
07:351,1 °C 89 % 1026,1 hPa 0,0 mm 0,0 mm nein 6,4 km/h 11,3 km/h 0,0 mm/h NW 0,000 klux 31,0 W/qm 0,0 nein - 07:35
07:401,1 °C 89 % 1026,1 hPa 0,0 mm 0,0 mm nein 4,8 km/h 11,3 km/h 0,0 mm/h NNW 0,000 klux 44,0 W/qm 0,0 nein - 07:40
07:451,1 °C 89 % 1026,1 hPa 0,0 mm 0,0 mm nein 4,8 km/h 9,7 km/h 0,0 mm/h NNW 0,000 klux 56,0 W/qm 0,0 nein - 07:45
07:501,1 °C 89 % 1026,1 hPa 0,0 mm 0,0 mm nein 4,8 km/h 9,7 km/h 0,0 mm/h NNW 0,000 klux 63,0 W/qm 0,0 nein - 07:50
07:551,1 °C 89 % 1026,1 hPa 0,0 mm 0,0 mm nein 4,8 km/h 11,3 km/h 0,0 mm/h NW 0,000 klux 66,0 W/qm 0,0 nein - 07:55
UhrzeitTemperaturFeuchteLuftdruckNiederschlagEvapotranspirationNiederschlag?WindWindböenRegenrateWindrichtungHelligkeitSolarstrahlungUV-IndexSonne?Feinstaub 10µmUhrzeit
08:001,1 °C 88 % 1026,1 hPa 0,0 mm 0,0 mm nein 6,4 km/h 12,9 km/h 0,0 mm/h NNW 0,000 klux 85,0 W/qm 0,0 nein - 08:00
08:051,1 °C 88 % 1026,1 hPa 0,0 mm 0,0 mm nein 4,8 km/h 9,7 km/h 0,0 mm/h N 0,000 klux 132,0 W/qm 0,0 nein - 08:05
08:101,7 °C 87 % 1026,0 hPa 0,0 mm 0,0 mm nein 3,2 km/h 9,7 km/h 0,0 mm/h NW 0,000 klux 159,0 W/qm 0,0 nein - 08:10
08:151,7 °C 86 % 1026,0 hPa 0,0 mm 0,0 mm nein 4,8 km/h 12,9 km/h 0,0 mm/h NNW 0,000 klux 150,0 W/qm 0,0 nein - 08:15
08:201,7 °C 85 % 1026,0 hPa 0,0 mm 0,0 mm nein 8,0 km/h 14,5 km/h 0,0 mm/h N 0,000 klux 179,0 W/qm 0,0 nein - 08:20
08:251,7 °C 85 % 1026,0 hPa 0,0 mm 0,0 mm nein 6,4 km/h 14,5 km/h 0,0 mm/h N 0,000 klux 132,0 W/qm 0,0 nein - 08:25
08:301,7 °C 84 % 1026,0 hPa 0,0 mm 0,0 mm nein 8,0 km/h 16,1 km/h 0,0 mm/h NO 0,000 klux 112,0 W/qm 0,0 nein - 08:30
08:351,7 °C 84 % 1026,0 hPa 0,0 mm 0,0 mm nein 11,3 km/h 16,1 km/h 0,0 mm/h N 0,000 klux 115,0 W/qm 0,0 nein - 08:35
08:401,7 °C 84 % 1026,0 hPa 0,0 mm 0,0 mm nein 6,4 km/h 14,5 km/h 0,0 mm/h NNW 0,000 klux 126,0 W/qm 0,0 nein - 08:40
08:451,7 °C 84 % 1026,0 hPa 0,0 mm 0,0 mm nein 11,3 km/h 17,7 km/h 0,0 mm/h N 0,000 klux 140,0 W/qm 0,0 nein - 08:45
08:502,2 °C 84 % 1025,8 hPa 0,0 mm 0,0 mm nein 8,0 km/h 16,1 km/h 0,0 mm/h NNW 0,000 klux 279,0 W/qm 0,1 nein - 08:50
08:552,2 °C 81 % 1025,9 hPa 0,0 mm 0,0 mm nein 9,7 km/h 16,1 km/h 0,0 mm/h NNW 0,000 klux 380,0 W/qm 0,2 nein - 08:55
09:002,8 °C 81 % 1025,8 hPa 0,0 mm 0,1 mm nein 9,7 km/h 16,1 km/h 0,0 mm/h NW 0,000 klux 247,0 W/qm 0,0 nein - 09:00
09:052,2 °C 81 % 1025,9 hPa 0,0 mm 0,0 mm nein 12,9 km/h 19,3 km/h 0,0 mm/h NNW 0,000 klux 182,0 W/qm 0,0 nein - 09:05
09:102,2 °C 82 % 1025,9 hPa 0,0 mm 0,0 mm nein 8,0 km/h 16,1 km/h 0,0 mm/h NNW 0,000 klux 167,0 W/qm 0,0 nein - 09:10
09:152,2 °C 82 % 1025,9 hPa 0,0 mm 0,0 mm nein 8,0 km/h 14,5 km/h 0,0 mm/h NNW 0,000 klux 161,0 W/qm 0,0 nein - 09:15
09:202,2 °C 81 % 1025,9 hPa 0,0 mm 0,0 mm nein 6,4 km/h 14,5 km/h 0,0 mm/h NNW 0,000 klux 159,0 W/qm 0,0 nein - 09:20
09:252,2 °C 80 % 1025,9 hPa 0,0 mm 0,0 mm nein 8,0 km/h 16,1 km/h 0,0 mm/h N 0,000 klux 120,0 W/qm 0,0 nein - 09:25
09:302,2 °C 79 % 1025,9 hPa 0,0 mm 0,0 mm nein 9,7 km/h 17,7 km/h 0,0 mm/h N 0,000 klux 159,0 W/qm 0,4 nein - 09:30
09:352,2 °C 79 % 1025,9 hPa 0,0 mm 0,0 mm nein 6,4 km/h 16,1 km/h 0,0 mm/h NNW 0,000 klux 146,0 W/qm 0,1 nein - 09:35
09:402,2 °C 79 % 1025,9 hPa 0,0 mm 0,0 mm nein 8,0 km/h 16,1 km/h 0,0 mm/h NNW 0,000 klux 125,0 W/qm 0,0 nein - 09:40
09:452,2 °C 78 % 1025,9 hPa 0,0 mm 0,0 mm nein 6,4 km/h 12,9 km/h 0,0 mm/h N 0,000 klux 195,0 W/qm 0,5 nein - 09:45
09:502,8 °C 77 % 1025,7 hPa 0,0 mm 0,0 mm nein 6,4 km/h 12,9 km/h 0,0 mm/h NO 0,000 klux 271,0 W/qm 0,7 nein - 09:50
09:552,8 °C 77 % 1025,7 hPa 0,0 mm 0,0 mm nein 4,8 km/h 12,9 km/h 0,0 mm/h NNO 0,000 klux 368,0 W/qm 0,9 nein - 09:55
UhrzeitTemperaturFeuchteLuftdruckNiederschlagEvapotranspirationNiederschlag?WindWindböenRegenrateWindrichtungHelligkeitSolarstrahlungUV-IndexSonne?Feinstaub 10µmUhrzeit
10:003,3 °C 74 % 1025,6 hPa 0,0 mm 0,1 mm nein 9,7 km/h 17,7 km/h 0,0 mm/h N 0,000 klux 356,0 W/qm 0,9 nein - 10:00
10:053,3 °C 74 % 1025,6 hPa 0,0 mm 0,0 mm nein 9,7 km/h 17,7 km/h 0,0 mm/h NO 0,000 klux 316,0 W/qm 1,1 nein - 10:05
10:103,3 °C 73 % 1025,7 hPa 0,0 mm 0,0 mm nein 11,3 km/h 19,3 km/h 0,0 mm/h N 0,000 klux 220,0 W/qm 0,9 nein - 10:10
10:152,8 °C 73 % 1025,8 hPa 0,0 mm 0,0 mm nein 8,0 km/h 16,1 km/h 0,0 mm/h NNO 0,000 klux 217,0 W/qm 0,9 nein - 10:15
10:202,8 °C 74 % 1025,9 hPa 0,0 mm 0,0 mm nein 6,4 km/h 16,1 km/h 0,0 mm/h N 0,000 klux 231,0 W/qm 1,0 nein - 10:20
10:252,8 °C 74 % 1025,9 hPa 0,0 mm 0,0 mm nein 6,4 km/h 16,1 km/h 0,0 mm/h N 0,000 klux 199,0 W/qm 0,8 nein - 10:25
10:303,3 °C 74 % 1025,7 hPa 0,0 mm 0,0 mm nein 4,8 km/h 11,3 km/h 0,0 mm/h NNW 0,000 klux 201,0 W/qm 0,8 nein - 10:30
10:352,8 °C 73 % 1025,9 hPa 0,0 mm 0,0 mm nein 8,0 km/h 14,5 km/h 0,0 mm/h NNW 0,000 klux 196,0 W/qm 0,8 nein - 10:35
10:403,3 °C 73 % 1025,7 hPa 0,0 mm 0,0 mm nein 8,0 km/h 16,1 km/h 0,0 mm/h NNO 0,000 klux 207,0 W/qm 0,8 nein - 10:40
10:453,3 °C 73 % 1025,7 hPa 0,0 mm 0,0 mm nein 6,4 km/h 16,1 km/h 0,0 mm/h NNW 0,000 klux 205,0 W/qm 0,9 nein - 10:45
10:503,3 °C 75 % 1025,8 hPa 0,0 mm 0,0 mm nein 6,4 km/h 14,5 km/h 0,0 mm/h NNO 0,000 klux 199,0 W/qm 0,9 nein - 10:50
10:553,3 °C 72 % 1025,7 hPa 0,0 mm 0,0 mm nein 9,7 km/h 17,7 km/h 0,0 mm/h NO 0,000 klux 241,0 W/qm 1,1 nein - 10:55
11:003,3 °C 72 % 1025,7 hPa 0,0 mm 0,1 mm nein 6,4 km/h 11,3 km/h 0,0 mm/h NO 0,000 klux 261,0 W/qm 1,3 nein - 11:00
11:053,9 °C 72 % 1025,6 hPa 0,0 mm 0,0 mm nein 6,4 km/h 12,9 km/h 0,0 mm/h ONO 0,000 klux 471,0 W/qm 1,6 nein - 11:05
11:104,4 °C 68 % 1025,5 hPa 0,0 mm 0,0 mm nein 6,4 km/h 17,7 km/h 0,0 mm/h ONO 0,000 klux 972,0 W/qm 2,0 nein - 11:10
11:155,0 °C 67 % 1025,4 hPa 0,0 mm 0,0 mm nein 9,7 km/h 17,7 km/h 0,0 mm/h N 0,000 klux 830,0 W/qm 1,7 nein - 11:15
11:205,0 °C 67 % 1025,4 hPa 0,0 mm 0,0 mm nein 6,4 km/h 17,7 km/h 0,0 mm/h N 0,000 klux 206,0 W/qm 0,8 nein - 11:20
11:254,4 °C 68 % 1025,5 hPa 0,0 mm 0,0 mm nein 9,7 km/h 17,7 km/h 0,0 mm/h N 0,000 klux 154,0 W/qm 0,1 nein - 11:25
11:303,9 °C 71 % 1025,6 hPa 0,0 mm 0,0 mm nein 8,0 km/h 16,1 km/h 0,0 mm/h NO 0,000 klux 136,0 W/qm 0,2 nein - 11:30
11:353,9 °C 70 % 1025,7 hPa 0,0 mm 0,0 mm nein 4,8 km/h 9,7 km/h 0,0 mm/h N 0,000 klux 161,0 W/qm 0,6 nein - 11:35
11:403,9 °C 69 % 1025,6 hPa 0,0 mm 0,0 mm nein 6,4 km/h 17,7 km/h 0,0 mm/h NO 0,000 klux 217,0 W/qm 0,8 nein - 11:40
11:453,9 °C 71 % 1025,7 hPa 0,0 mm 0,0 mm nein 8,0 km/h 16,1 km/h 0,0 mm/h NNO 0,000 klux 187,0 W/qm 0,7 nein - 11:45
11:503,9 °C 70 % 1025,7 hPa 0,0 mm 0,0 mm nein 8,0 km/h 14,5 km/h 0,0 mm/h NNO 0,000 klux 130,0 W/qm 0,3 nein - 11:50
11:553,9 °C 72 % 1025,6 hPa 0,0 mm 0,0 mm nein 6,4 km/h 14,5 km/h 0,0 mm/h NO 0,000 klux 123,0 W/qm 0,2 nein - 11:55
UhrzeitTemperaturFeuchteLuftdruckNiederschlagEvapotranspirationNiederschlag?WindWindböenRegenrateWindrichtungHelligkeitSolarstrahlungUV-IndexSonne?Feinstaub 10µmUhrzeit
12:003,9 °C 72 % 1025,7 hPa 0,0 mm 0,1 mm nein 8,0 km/h 14,5 km/h 0,0 mm/h N 0,000 klux 164,0 W/qm 0,6 nein - 12:00
12:053,9 °C 71 % 1025,7 hPa 0,0 mm 0,0 mm nein 9,7 km/h 14,5 km/h 0,0 mm/h N 0,000 klux 205,0 W/qm 0,8 nein - 12:05
12:103,9 °C 70 % 1025,8 hPa 0,0 mm 0,0 mm nein 6,4 km/h 12,9 km/h 0,0 mm/h NO 0,000 klux 242,0 W/qm 1,0 nein - 12:10
12:153,9 °C 70 % 1025,7 hPa 0,0 mm 0,0 mm nein 6,4 km/h 11,3 km/h 0,0 mm/h N 0,000 klux 259,0 W/qm 1,0 nein - 12:15
12:203,9 °C 69 % 1025,7 hPa 0,0 mm 0,0 mm nein 8,0 km/h 14,5 km/h 0,0 mm/h NNO 0,000 klux 298,0 W/qm 1,2 nein - 12:20
12:254,4 °C 70 % 1025,6 hPa 0,0 mm 0,0 mm nein 4,8 km/h 9,7 km/h 0,0 mm/h ONO 0,000 klux 312,0 W/qm 1,1 nein - 12:25
12:304,4 °C 70 % 1025,6 hPa 0,0 mm 0,0 mm nein 6,4 km/h 16,1 km/h 0,0 mm/h NNO 0,000 klux 297,0 W/qm 1,1 nein - 12:30
12:354,4 °C 69 % 1025,6 hPa 0,0 mm 0,0 mm nein 8,0 km/h 16,1 km/h 0,0 mm/h NNW 0,000 klux 333,0 W/qm 1,2 nein - 12:35
12:404,4 °C 67 % 1025,5 hPa 0,0 mm 0,0 mm nein 6,4 km/h 14,5 km/h 0,0 mm/h NO 0,000 klux 286,0 W/qm 1,1 nein - 12:40
12:454,4 °C 68 % 1025,5 hPa 0,0 mm 0,0 mm nein 8,0 km/h 14,5 km/h 0,0 mm/h NNO 0,000 klux 212,0 W/qm 0,8 nein - 12:45
12:504,4 °C 69 % 1025,5 hPa 0,0 mm 0,0 mm nein 8,0 km/h 14,5 km/h 0,0 mm/h NNO 0,000 klux 176,0 W/qm 0,7 nein - 12:50
12:554,4 °C 69 % 1025,5 hPa 0,0 mm 0,0 mm nein 8,0 km/h 12,9 km/h 0,0 mm/h N 0,000 klux 175,0 W/qm 0,7 nein - 12:55
13:004,4 °C 68 % 1025,5 hPa 0,0 mm 0,1 mm nein 4,8 km/h 12,9 km/h 0,0 mm/h N 0,000 klux 177,0 W/qm 0,7 nein - 13:00
13:054,4 °C 70 % 1025,5 hPa 0,0 mm 0,0 mm nein 8,0 km/h 17,7 km/h 0,0 mm/h NNW 0,000 klux 183,0 W/qm 0,7 nein - 13:05
13:103,9 °C 69 % 1025,6 hPa 0,0 mm 0,0 mm nein 6,4 km/h 11,3 km/h 0,0 mm/h NO 0,000 klux 211,0 W/qm 0,8 nein - 13:10
13:154,4 °C 70 % 1025,5 hPa 0,0 mm 0,0 mm nein 6,4 km/h 12,9 km/h 0,0 mm/h NO 0,000 klux 230,0 W/qm 0,9 nein - 13:15
13:204,4 °C 69 % 1025,5 hPa 0,0 mm 0,0 mm nein 6,4 km/h 16,1 km/h 0,0 mm/h NNO 0,000 klux 238,0 W/qm 1,0 nein - 13:20
13:253,9 °C 70 % 1025,6 hPa 0,0 mm 0,0 mm nein 8,0 km/h 14,5 km/h 0,0 mm/h NNO 0,000 klux 223,0 W/qm 0,9 nein - 13:25
13:304,4 °C 70 % 1025,4 hPa 0,0 mm 0,0 mm nein 4,8 km/h 11,3 km/h 0,0 mm/h NNW 0,000 klux 221,0 W/qm 0,9 nein - 13:30
13:353,9 °C 69 % 1025,6 hPa 0,0 mm 0,0 mm nein 8,0 km/h 16,1 km/h 0,0 mm/h NO 0,000 klux 231,0 W/qm 1,0 nein - 13:35
13:404,4 °C 71 % 1025,5 hPa 0,0 mm 0,0 mm nein 4,8 km/h 14,5 km/h 0,0 mm/h NNW 0,000 klux 232,0 W/qm 0,9 nein - 13:40
13:454,4 °C 70 % 1025,5 hPa 0,0 mm 0,0 mm nein 6,4 km/h 12,9 km/h 0,0 mm/h NNW 0,000 klux 185,0 W/qm 0,7 nein - 13:45
13:504,4 °C 70 % 1025,5 hPa 0,0 mm 0,0 mm nein 4,8 km/h 9,7 km/h 0,0 mm/h NNW 0,000 klux 168,0 W/qm 0,7 nein - 13:50
13:554,4 °C 70 % 1025,5 hPa 0,0 mm 0,0 mm nein 6,4 km/h 17,7 km/h 0,0 mm/h NNO 0,000 klux 190,0 W/qm 0,8 nein - 13:55
UhrzeitTemperaturFeuchteLuftdruckNiederschlagEvapotranspirationNiederschlag?WindWindböenRegenrateWindrichtungHelligkeitSolarstrahlungUV-IndexSonne?Feinstaub 10µmUhrzeit
14:004,4 °C 71 % 1025,5 hPa 0,0 mm 0,1 mm nein 6,4 km/h 14,5 km/h 0,0 mm/h N 0,000 klux 191,0 W/qm 0,8 nein - 14:00
14:054,4 °C 71 % 1025,5 hPa 0,0 mm 0,0 mm nein 9,7 km/h 16,1 km/h 0,0 mm/h N 0,000 klux 160,0 W/qm 0,6 nein - 14:05
14:104,4 °C 71 % 1025,6 hPa 0,0 mm 0,0 mm nein 4,8 km/h 12,9 km/h 0,0 mm/h N 0,000 klux 153,0 W/qm 0,6 nein - 14:10
14:154,4 °C 73 % 1025,6 hPa 0,0 mm 0,0 mm nein 4,8 km/h 9,7 km/h 0,0 mm/h NNO 0,000 klux 167,0 W/qm 0,7 nein - 14:15
14:204,4 °C 73 % 1025,6 hPa 0,0 mm 0,0 mm nein 6,4 km/h 16,1 km/h 0,0 mm/h NW 0,000 klux 164,0 W/qm 0,7 nein - 14:20
14:254,4 °C 73 % 1025,6 hPa 0,0 mm 0,0 mm nein 6,4 km/h 14,5 km/h 0,0 mm/h N 0,000 klux 212,0 W/qm 0,8 nein - 14:25
14:304,4 °C 72 % 1025,6 hPa 0,0 mm 0,0 mm nein 6,4 km/h 11,3 km/h 0,0 mm/h N 0,000 klux 211,0 W/qm 0,8 nein - 14:30
14:354,4 °C 73 % 1025,6 hPa 0,0 mm 0,0 mm nein 6,4 km/h 14,5 km/h 0,0 mm/h NNW 0,000 klux 197,0 W/qm 0,7 nein - 14:35
14:404,4 °C 71 % 1025,5 hPa 0,0 mm 0,0 mm nein 9,7 km/h 16,1 km/h 0,0 mm/h NW 0,000 klux 244,0 W/qm 0,9 nein - 14:40
14:454,4 °C 72 % 1025,5 hPa 0,0 mm 0,0 mm nein 8,0 km/h 14,5 km/h 0,0 mm/h N 0,000 klux 203,0 W/qm 0,7 nein - 14:45
14:504,4 °C 71 % 1025,5 hPa 0,0 mm 0,0 mm nein 6,4 km/h 12,9 km/h 0,0 mm/h NNO 0,000 klux 171,0 W/qm 0,6 nein - 14:50
14:554,4 °C 72 % 1025,4 hPa 0,0 mm 0,0 mm nein 6,4 km/h 14,5 km/h 0,0 mm/h N 0,000 klux 161,0 W/qm 0,6 nein - 14:55
15:004,4 °C 72 % 1025,4 hPa 0,0 mm 0,1 mm nein 6,4 km/h 14,5 km/h 0,0 mm/h NNO 0,000 klux 171,0 W/qm 0,6 nein - 15:00
15:054,4 °C 72 % 1025,5 hPa 0,0 mm 0,0 mm nein 8,0 km/h 11,3 km/h 0,0 mm/h NNW 0,000 klux 143,0 W/qm 0,5 nein - 15:05
15:104,4 °C 72 % 1025,5 hPa 0,0 mm 0,0 mm nein 8,0 km/h 14,5 km/h 0,0 mm/h N 0,000 klux 148,0 W/qm 0,5 nein - 15:10
Gesamt: 2,1 °C 79 % 1026,4 hPa 0,0 mm 0,8 mm nein 5,0 km/h 10,4 km/h 0,0 mm/h 0 0,000 klux 106,9 W/qm 0,3 nein nan µg/m³

Insgesamt 183 Zeilen mal 15 Spalten = 2745 Werte werden angezeigt.

www.wetter-rosstal.de   •   www.wetter-franken.de   •   www.lightningmaps.org   •   Start   •   Kontakt / Datenschutz   •   PC-Kümmerer